sensor_id;sensor_type;location;lat;lon;timestamp;temperature;humidity
35962;DHT22;22044;48.298;10.008;2022-08-21T00:01:52;16.40;99.90
35962;DHT22;22044;48.298;10.008;2022-08-21T00:04:19;16.50;99.90
35962;DHT22;22044;48.298;10.008;2022-08-21T00:06:47;16.40;99.90
35962;DHT22;22044;48.298;10.008;2022-08-21T00:09:16;16.40;99.90
35962;DHT22;22044;48.298;10.008;2022-08-21T00:11:43;16.40;99.90
35962;DHT22;22044;48.298;10.008;2022-08-21T00:14:11;16.30;99.90
35962;DHT22;22044;48.298;10.008;2022-08-21T00:16:38;16.40;99.90
35962;DHT22;22044;48.298;10.008;2022-08-21T00:19:06;16.40;99.90
35962;DHT22;22044;48.298;10.008;2022-08-21T00:21:34;16.40;99.90
35962;DHT22;22044;48.298;10.008;2022-08-21T00:24:02;16.40;99.90
35962;DHT22;22044;48.298;10.008;2022-08-21T00:26:31;16.40;99.90
35962;DHT22;22044;48.298;10.008;2022-08-21T00:28:58;16.30;99.90
35962;DHT22;22044;48.298;10.008;2022-08-21T00:31:25;16.20;99.90
35962;DHT22;22044;48.298;10.008;2022-08-21T00:33:52;16.10;99.90
35962;DHT22;22044;48.298;10.008;2022-08-21T00:36:19;15.90;99.90
35962;DHT22;22044;48.298;10.008;2022-08-21T00:38:46;15.80;99.90
35962;DHT22;22044;48.298;10.008;2022-08-21T00:41:14;15.80;99.90
35962;DHT22;22044;48.298;10.008;2022-08-21T00:43:42;15.80;99.90
35962;DHT22;22044;48.298;10.008;2022-08-21T00:46:10;15.90;99.90
35962;DHT22;22044;48.298;10.008;2022-08-21T00:48:37;15.90;99.90
35962;DHT22;22044;48.298;10.008;2022-08-21T00:51:07;16.00;99.90
35962;DHT22;22044;48.298;10.008;2022-08-21T00:53:36;16.00;99.90
35962;DHT22;22044;48.298;10.008;2022-08-21T00:56:05;16.00;99.90
35962;DHT22;22044;48.298;10.008;2022-08-21T00:58:34;16.10;99.90
35962;DHT22;22044;48.298;10.008;2022-08-21T01:01:05;16.10;99.90
35962;DHT22;22044;48.298;10.008;2022-08-21T01:03:33;16.10;99.90
35962;DHT22;22044;48.298;10.008;2022-08-21T01:06:01;16.10;99.90
35962;DHT22;22044;48.298;10.008;2022-08-21T01:08:29;16.10;99.90
35962;DHT22;22044;48.298;10.008;2022-08-21T01:10:57;16.10;99.90
35962;DHT22;22044;48.298;10.008;2022-08-21T01:13:26;16.00;99.90
35962;DHT22;22044;48.298;10.008;2022-08-21T01:15:57;16.00;99.90
35962;DHT22;22044;48.298;10.008;2022-08-21T01:18:27;16.00;99.90
35962;DHT22;22044;48.298;10.008;2022-08-21T01:21:04;16.00;99.90
35962;DHT22;22044;48.298;10.008;2022-08-21T01:23:32;16.00;99.90
35962;DHT22;22044;48.298;10.008;2022-08-21T01:26:00;16.00;99.90
35962;DHT22;22044;48.298;10.008;2022-08-21T01:28:28;16.00;99.90
35962;DHT22;22044;48.298;10.008;2022-08-21T01:30:58;15.90;99.90
35962;DHT22;22044;48.298;10.008;2022-08-21T01:33:27;16.00;99.90
35962;DHT22;22044;48.298;10.008;2022-08-21T01:35:54;15.90;99.90
35962;DHT22;22044;48.298;10.008;2022-08-21T01:38:23;15.90;99.90
35962;DHT22;22044;48.298;10.008;2022-08-21T01:40:51;15.80;99.90
35962;DHT22;22044;48.298;10.008;2022-08-21T01:43:18;15.70;99.90
35962;DHT22;22044;48.298;10.008;2022-08-21T01:45:45;15.80;99.90
35962;DHT22;22044;48.298;10.008;2022-08-21T01:48:12;15.70;99.90
35962;DHT22;22044;48.298;10.008;2022-08-21T01:50:40;15.70;99.90
35962;DHT22;22044;48.298;10.008;2022-08-21T01:53:07;15.70;99.90
35962;DHT22;22044;48.298;10.008;2022-08-21T01:55:35;15.70;99.90
35962;DHT22;22044;48.298;10.008;2022-08-21T01:58:02;15.60;99.90
35962;DHT22;22044;48.298;10.008;2022-08-21T02:00:30;15.60;99.90
35962;DHT22;22044;48.298;10.008;2022-08-21T02:02:57;15.60;99.90
35962;DHT22;22044;48.298;10.008;2022-08-21T02:05:24;15.60;99.90
35962;DHT22;22044;48.298;10.008;2022-08-21T02:07:52;15.60;99.90
35962;DHT22;22044;48.298;10.008;2022-08-21T02:10:27;15.60;99.90
35962;DHT22;22044;48.298;10.008;2022-08-21T02:12:56;15.60;99.90
35962;DHT22;22044;48.298;10.008;2022-08-21T02:15:24;15.60;99.90
35962;DHT22;22044;48.298;10.008;2022-08-21T02:17:54;15.60;99.90
35962;DHT22;22044;48.298;10.008;2022-08-21T02:20:24;15.60;99.90
35962;DHT22;22044;48.298;10.008;2022-08-21T02:22:52;15.50;99.90
35962;DHT22;22044;48.298;10.008;2022-08-21T02:25:21;15.50;99.90
35962;DHT22;22044;48.298;10.008;2022-08-21T02:27:48;15.40;99.90
35962;DHT22;22044;48.298;10.008;2022-08-21T02:30:20;15.40;99.90
35962;DHT22;22044;48.298;10.008;2022-08-21T02:32:48;15.30;99.90
35962;DHT22;22044;48.298;10.008;2022-08-21T02:35:15;15.20;99.90
35962;DHT22;22044;48.298;10.008;2022-08-21T02:37:44;15.20;99.90
35962;DHT22;22044;48.298;10.008;2022-08-21T02:40:13;15.20;99.90
35962;DHT22;22044;48.298;10.008;2022-08-21T02:42:40;15.20;99.90
35962;DHT22;22044;48.298;10.008;2022-08-21T02:45:10;15.20;99.90
35962;DHT22;22044;48.298;10.008;2022-08-21T02:47:39;15.30;99.90
35962;DHT22;22044;48.298;10.008;2022-08-21T02:50:07;15.30;99.90
35962;DHT22;22044;48.298;10.008;2022-08-21T02:52:35;15.20;99.90
35962;DHT22;22044;48.298;10.008;2022-08-21T02:55:03;15.20;99.90
35962;DHT22;22044;48.298;10.008;2022-08-21T02:57:30;15.10;99.90
35962;DHT22;22044;48.298;10.008;2022-08-21T02:59:58;15.10;99.90
35962;DHT22;22044;48.298;10.008;2022-08-21T03:02:25;15.10;99.90
35962;DHT22;22044;48.298;10.008;2022-08-21T03:04:54;15.10;99.90
35962;DHT22;22044;48.298;10.008;2022-08-21T03:07:21;15.10;99.90
35962;DHT22;22044;48.298;10.008;2022-08-21T03:09:48;14.90;99.90
35962;DHT22;22044;48.298;10.008;2022-08-21T03:12:15;14.90;99.90
35962;DHT22;22044;48.298;10.008;2022-08-21T03:14:42;14.90;99.90
35962;DHT22;22044;48.298;10.008;2022-08-21T03:17:10;14.90;99.90
35962;DHT22;22044;48.298;10.008;2022-08-21T03:19:37;15.00;99.90
35962;DHT22;22044;48.298;10.008;2022-08-21T03:22:05;14.90;99.90
35962;DHT22;22044;48.298;10.008;2022-08-21T03:24:33;15.00;99.90
35962;DHT22;22044;48.298;10.008;2022-08-21T03:27:00;15.00;99.90
35962;DHT22;22044;48.298;10.008;2022-08-21T03:29:27;14.90;99.90
35962;DHT22;22044;48.298;10.008;2022-08-21T03:31:54;14.90;99.90
35962;DHT22;22044;48.298;10.008;2022-08-21T03:34:21;14.80;99.90
35962;DHT22;22044;48.298;10.008;2022-08-21T03:36:48;14.70;99.90
35962;DHT22;22044;48.298;10.008;2022-08-21T03:39:17;14.60;99.90
35962;DHT22;22044;48.298;10.008;2022-08-21T03:41:45;14.60;99.90
35962;DHT22;22044;48.298;10.008;2022-08-21T03:44:13;14.60;99.90
35962;DHT22;22044;48.298;10.008;2022-08-21T03:46:40;14.50;99.90
35962;DHT22;22044;48.298;10.008;2022-08-21T03:49:07;14.50;99.90
35962;DHT22;22044;48.298;10.008;2022-08-21T03:51:34;14.60;99.90
35962;DHT22;22044;48.298;10.008;2022-08-21T03:54:01;14.50;99.90
35962;DHT22;22044;48.298;10.008;2022-08-21T03:56:30;14.50;99.90
35962;DHT22;22044;48.298;10.008;2022-08-21T03:58:57;14.40;99.90
35962;DHT22;22044;48.298;10.008;2022-08-21T04:01:25;14.50;99.90
35962;DHT22;22044;48.298;10.008;2022-08-21T04:03:52;14.50;99.90
35962;DHT22;22044;48.298;10.008;2022-08-21T04:06:19;14.50;99.90
35962;DHT22;22044;48.298;10.008;2022-08-21T04:08:46;14.50;99.90
35962;DHT22;22044;48.298;10.008;2022-08-21T04:11:14;14.50;99.90
35962;DHT22;22044;48.298;10.008;2022-08-21T04:13:44;14.50;99.90
35962;DHT22;22044;48.298;10.008;2022-08-21T04:16:12;14.60;99.90
35962;DHT22;22044;48.298;10.008;2022-08-21T04:18:39;14.60;99.90
35962;DHT22;22044;48.298;10.008;2022-08-21T04:21:07;14.60;99.90
35962;DHT22;22044;48.298;10.008;2022-08-21T04:23:36;14.60;99.90
35962;DHT22;22044;48.298;10.008;2022-08-21T04:26:04;14.60;99.90
35962;DHT22;22044;48.298;10.008;2022-08-21T04:28:31;14.50;99.90
35962;DHT22;22044;48.298;10.008;2022-08-21T04:31:00;14.50;99.90
35962;DHT22;22044;48.298;10.008;2022-08-21T04:33:27;14.50;99.90
35962;DHT22;22044;48.298;10.008;2022-08-21T04:35:55;14.50;99.90
35962;DHT22;22044;48.298;10.008;2022-08-21T04:38:22;14.40;99.90
35962;DHT22;22044;48.298;10.008;2022-08-21T04:40:50;14.40;99.90
35962;DHT22;22044;48.298;10.008;2022-08-21T04:43:17;14.50;99.90
35962;DHT22;22044;48.298;10.008;2022-08-21T04:45:47;14.50;99.90
35962;DHT22;22044;48.298;10.008;2022-08-21T04:48:18;14.50;99.90
35962;DHT22;22044;48.298;10.008;2022-08-21T04:50:49;14.50;99.90
35962;DHT22;22044;48.298;10.008;2022-08-21T04:53:21;14.50;99.90
35962;DHT22;22044;48.298;10.008;2022-08-21T04:55:49;14.50;99.90
35962;DHT22;22044;48.298;10.008;2022-08-21T04:58:20;14.40;99.90
35962;DHT22;22044;48.298;10.008;2022-08-21T05:00:48;14.50;99.90
35962;DHT22;22044;48.298;10.008;2022-08-21T05:03:17;14.40;99.90
35962;DHT22;22044;48.298;10.008;2022-08-21T05:05:45;14.40;99.90
35962;DHT22;22044;48.298;10.008;2022-08-21T05:08:14;14.40;99.90
35962;DHT22;22044;48.298;10.008;2022-08-21T05:10:42;14.50;99.90
35962;DHT22;22044;48.298;10.008;2022-08-21T05:13:10;14.50;99.90
35962;DHT22;22044;48.298;10.008;2022-08-21T05:15:38;14.60;99.90
35962;DHT22;22044;48.298;10.008;2022-08-21T05:18:05;14.50;99.90
35962;DHT22;22044;48.298;10.008;2022-08-21T05:20:34;14.50;99.90
35962;DHT22;22044;48.298;10.008;2022-08-21T05:23:06;14.40;99.90
35962;DHT22;22044;48.298;10.008;2022-08-21T05:25:34;14.40;99.90
35962;DHT22;22044;48.298;10.008;2022-08-21T05:28:02;14.40;99.90
35962;DHT22;22044;48.298;10.008;2022-08-21T05:30:29;14.40;99.90
35962;DHT22;22044;48.298;10.008;2022-08-21T05:32:58;14.30;99.90
35962;DHT22;22044;48.298;10.008;2022-08-21T05:35:26;14.30;99.90
35962;DHT22;22044;48.298;10.008;2022-08-21T05:37:55;14.30;99.90
35962;DHT22;22044;48.298;10.008;2022-08-21T05:40:23;14.30;99.90
35962;DHT22;22044;48.298;10.008;2022-08-21T05:42:51;14.20;99.90
35962;DHT22;22044;48.298;10.008;2022-08-21T05:45:19;14.20;99.90
35962;DHT22;22044;48.298;10.008;2022-08-21T05:47:47;14.20;99.90
35962;DHT22;22044;48.298;10.008;2022-08-21T05:50:14;14.30;99.90
35962;DHT22;22044;48.298;10.008;2022-08-21T05:52:41;14.40;99.90
35962;DHT22;22044;48.298;10.008;2022-08-21T05:55:09;14.50;99.90
35962;DHT22;22044;48.298;10.008;2022-08-21T05:57:37;14.40;99.90
35962;DHT22;22044;48.298;10.008;2022-08-21T06:00:07;14.30;99.90
35962;DHT22;22044;48.298;10.008;2022-08-21T06:02:38;14.30;99.90
35962;DHT22;22044;48.298;10.008;2022-08-21T06:05:06;14.30;99.90
35962;DHT22;22044;48.298;10.008;2022-08-21T06:07:33;14.50;99.90
35962;DHT22;22044;48.298;10.008;2022-08-21T06:10:00;14.50;99.90
35962;DHT22;22044;48.298;10.008;2022-08-21T06:12:29;14.50;99.90
35962;DHT22;22044;48.298;10.008;2022-08-21T06:14:56;14.60;99.90
35962;DHT22;22044;48.298;10.008;2022-08-21T06:17:23;14.70;99.90
35962;DHT22;22044;48.298;10.008;2022-08-21T06:19:51;14.70;99.90
35962;DHT22;22044;48.298;10.008;2022-08-21T06:22:18;14.80;99.90
35962;DHT22;22044;48.298;10.008;2022-08-21T06:24:46;14.90;99.90
35962;DHT22;22044;48.298;10.008;2022-08-21T06:27:13;14.90;99.90
35962;DHT22;22044;48.298;10.008;2022-08-21T06:29:42;14.90;99.90
35962;DHT22;22044;48.298;10.008;2022-08-21T06:32:11;14.80;99.90
35962;DHT22;22044;48.298;10.008;2022-08-21T06:34:39;14.90;99.90
35962;DHT22;22044;48.298;10.008;2022-08-21T06:37:07;14.90;99.90
35962;DHT22;22044;48.298;10.008;2022-08-21T06:39:34;15.00;99.90
35962;DHT22;22044;48.298;10.008;2022-08-21T06:42:02;15.00;99.90
35962;DHT22;22044;48.298;10.008;2022-08-21T06:44:29;15.00;99.90
35962;DHT22;22044;48.298;10.008;2022-08-21T06:46:58;15.00;99.90
35962;DHT22;22044;48.298;10.008;2022-08-21T06:49:26;15.10;99.90
35962;DHT22;22044;48.298;10.008;2022-08-21T06:51:53;15.00;99.90
35962;DHT22;22044;48.298;10.008;2022-08-21T06:54:20;15.10;99.90
35962;DHT22;22044;48.298;10.008;2022-08-21T06:56:47;15.10;99.90
35962;DHT22;22044;48.298;10.008;2022-08-21T06:59:14;15.10;99.90
35962;DHT22;22044;48.298;10.008;2022-08-21T07:01:41;15.20;99.90
35962;DHT22;22044;48.298;10.008;2022-08-21T07:04:10;15.30;99.90
35962;DHT22;22044;48.298;10.008;2022-08-21T07:06:37;15.40;99.90
35962;DHT22;22044;48.298;10.008;2022-08-21T07:09:04;15.50;99.90
35962;DHT22;22044;48.298;10.008;2022-08-21T07:11:32;15.60;99.90
35962;DHT22;22044;48.298;10.008;2022-08-21T07:13:59;15.60;99.90
35962;DHT22;22044;48.298;10.008;2022-08-21T07:16:26;15.60;99.90
35962;DHT22;22044;48.298;10.008;2022-08-21T07:18:53;15.70;99.90
35962;DHT22;22044;48.298;10.008;2022-08-21T07:21:22;15.80;99.90
35962;DHT22;22044;48.298;10.008;2022-08-21T07:23:50;15.90;99.90
35962;DHT22;22044;48.298;10.008;2022-08-21T07:26:20;16.00;99.90
35962;DHT22;22044;48.298;10.008;2022-08-21T07:28:48;16.00;99.90
35962;DHT22;22044;48.298;10.008;2022-08-21T07:31:18;16.00;99.90
35962;DHT22;22044;48.298;10.008;2022-08-21T07:33:45;16.10;99.90
35962;DHT22;22044;48.298;10.008;2022-08-21T07:36:13;16.10;99.90
35962;DHT22;22044;48.298;10.008;2022-08-21T07:38:42;16.20;99.90
35962;DHT22;22044;48.298;10.008;2022-08-21T07:41:14;16.30;99.90
35962;DHT22;22044;48.298;10.008;2022-08-21T07:43:42;16.40;99.90
35962;DHT22;22044;48.298;10.008;2022-08-21T07:46:09;16.50;99.90
35962;DHT22;22044;48.298;10.008;2022-08-21T07:48:36;16.60;99.90
35962;DHT22;22044;48.298;10.008;2022-08-21T07:51:06;16.70;99.90
35962;DHT22;22044;48.298;10.008;2022-08-21T07:53:34;16.80;99.90
35962;DHT22;22044;48.298;10.008;2022-08-21T07:56:03;17.00;99.90
35962;DHT22;22044;48.298;10.008;2022-08-21T07:58:31;17.10;99.90
35962;DHT22;22044;48.298;10.008;2022-08-21T08:00:58;17.30;99.90
35962;DHT22;22044;48.298;10.008;2022-08-21T08:03:25;17.30;99.90
35962;DHT22;22044;48.298;10.008;2022-08-21T08:05:53;17.40;99.90
35962;DHT22;22044;48.298;10.008;2022-08-21T08:08:20;17.50;99.90
35962;DHT22;22044;48.298;10.008;2022-08-21T08:10:47;17.60;99.90
35962;DHT22;22044;48.298;10.008;2022-08-21T08:13:16;17.60;99.90
35962;DHT22;22044;48.298;10.008;2022-08-21T08:15:43;17.80;99.90
35962;DHT22;22044;48.298;10.008;2022-08-21T08:18:11;17.90;99.90
35962;DHT22;22044;48.298;10.008;2022-08-21T08:20:38;17.90;99.90
35962;DHT22;22044;48.298;10.008;2022-08-21T08:23:06;18.00;99.90
35962;DHT22;22044;48.298;10.008;2022-08-21T08:25:33;18.10;99.90
35962;DHT22;22044;48.298;10.008;2022-08-21T08:28:00;18.30;99.90
35962;DHT22;22044;48.298;10.008;2022-08-21T08:30:29;18.40;99.90
35962;DHT22;22044;48.298;10.008;2022-08-21T08:32:56;18.60;99.90
35962;DHT22;22044;48.298;10.008;2022-08-21T08:35:25;18.70;99.90
35962;DHT22;22044;48.298;10.008;2022-08-21T08:37:54;18.80;99.90
35962;DHT22;22044;48.298;10.008;2022-08-21T08:40:28;18.80;99.90
35962;DHT22;22044;48.298;10.008;2022-08-21T08:42:59;18.90;99.90
35962;DHT22;22044;48.298;10.008;2022-08-21T08:45:26;19.00;99.90
35962;DHT22;22044;48.298;10.008;2022-08-21T08:48:00;19.20;99.90
35962;DHT22;22044;48.298;10.008;2022-08-21T08:50:33;19.20;99.90
35962;DHT22;22044;48.298;10.008;2022-08-21T08:53:06;19.50;99.90
35962;DHT22;22044;48.298;10.008;2022-08-21T08:55:36;19.60;99.90
35962;DHT22;22044;48.298;10.008;2022-08-21T08:58:04;19.80;99.90
35962;DHT22;22044;48.298;10.008;2022-08-21T09:00:32;19.90;99.90
35962;DHT22;22044;48.298;10.008;2022-08-21T09:03:02;20.10;99.90
35962;DHT22;22044;48.298;10.008;2022-08-21T09:05:33;20.30;99.90
35962;DHT22;22044;48.298;10.008;2022-08-21T09:08:25;20.40;99.90
35962;DHT22;22044;48.298;10.008;2022-08-21T09:11:01;20.50;99.90
35962;DHT22;22044;48.298;10.008;2022-08-21T09:13:37;20.60;99.90
35962;DHT22;22044;48.298;10.008;2022-08-21T09:16:16;20.70;99.90
35962;DHT22;22044;48.298;10.008;2022-08-21T09:18:57;20.90;99.90
35962;DHT22;22044;48.298;10.008;2022-08-21T09:21:35;21.10;99.90
35962;DHT22;22044;48.298;10.008;2022-08-21T09:24:17;21.30;99.90
35962;DHT22;22044;48.298;10.008;2022-08-21T09:26:51;21.40;99.90
35962;DHT22;22044;48.298;10.008;2022-08-21T09:29:24;21.50;99.90
35962;DHT22;22044;48.298;10.008;2022-08-21T09:31:53;21.70;99.90
35962;DHT22;22044;48.298;10.008;2022-08-21T09:34:27;22.10;99.90
35962;DHT22;22044;48.298;10.008;2022-08-21T09:36:55;22.30;99.90
35962;DHT22;22044;48.298;10.008;2022-08-21T09:39:25;22.40;99.90
35962;DHT22;22044;48.298;10.008;2022-08-21T09:41:57;22.50;99.90
35962;DHT22;22044;48.298;10.008;2022-08-21T09:44:26;22.60;99.90
35962;DHT22;22044;48.298;10.008;2022-08-21T09:46:54;22.40;99.90
35962;DHT22;22044;48.298;10.008;2022-08-21T09:49:30;22.40;99.90
35962;DHT22;22044;48.298;10.008;2022-08-21T09:51:59;22.60;99.90
35962;DHT22;22044;48.298;10.008;2022-08-21T09:54:30;22.70;99.90
35962;DHT22;22044;48.298;10.008;2022-08-21T09:56:59;22.90;99.90
35962;DHT22;22044;48.298;10.008;2022-08-21T09:59:46;23.00;99.90
35962;DHT22;22044;48.298;10.008;2022-08-21T10:02:26;23.10;99.90
35962;DHT22;22044;48.298;10.008;2022-08-21T10:04:57;23.10;99.90
35962;DHT22;22044;48.298;10.008;2022-08-21T10:07:26;23.10;99.90
35962;DHT22;22044;48.298;10.008;2022-08-21T10:10:03;23.20;99.90
35962;DHT22;22044;48.298;10.008;2022-08-21T10:12:39;23.30;99.90
35962;DHT22;22044;48.298;10.008;2022-08-21T10:15:15;23.50;99.90
35962;DHT22;22044;48.298;10.008;2022-08-21T10:17:53;23.30;99.90
35962;DHT22;22044;48.298;10.008;2022-08-21T10:20:27;23.10;99.90
35962;DHT22;22044;48.298;10.008;2022-08-21T10:23:04;22.80;99.90
35962;DHT22;22044;48.298;10.008;2022-08-21T10:25:37;22.70;99.90
35962;DHT22;22044;48.298;10.008;2022-08-21T10:28:10;23.00;99.90
35962;DHT22;22044;48.298;10.008;2022-08-21T10:30:48;23.30;99.90
35962;DHT22;22044;48.298;10.008;2022-08-21T10:33:26;23.40;99.90
35962;DHT22;22044;48.298;10.008;2022-08-21T10:36:05;23.40;99.90
35962;DHT22;22044;48.298;10.008;2022-08-21T10:38:58;23.20;99.90
35962;DHT22;22044;48.298;10.008;2022-08-21T10:41:47;23.30;99.90
35962;DHT22;22044;48.298;10.008;2022-08-21T10:44:25;23.00;99.90
35962;DHT22;22044;48.298;10.008;2022-08-21T10:47:01;23.20;99.90
35962;DHT22;22044;48.298;10.008;2022-08-21T10:49:39;22.80;99.90
35962;DHT22;22044;48.298;10.008;2022-08-21T10:52:33;22.40;99.90
35962;DHT22;22044;48.298;10.008;2022-08-21T10:55:06;22.60;99.90
35962;DHT22;22044;48.298;10.008;2022-08-21T10:57:40;22.90;99.90
35962;DHT22;22044;48.298;10.008;2022-08-21T11:00:11;23.30;99.90
35962;DHT22;22044;48.298;10.008;2022-08-21T11:02:41;23.50;99.90
35962;DHT22;22044;48.298;10.008;2022-08-21T11:05:14;23.70;99.90
35962;DHT22;22044;48.298;10.008;2022-08-21T11:07:47;23.60;99.90
35962;DHT22;22044;48.298;10.008;2022-08-21T11:10:20;23.90;99.90
35962;DHT22;22044;48.298;10.008;2022-08-21T11:12:52;24.10;99.90
35962;DHT22;22044;48.298;10.008;2022-08-21T11:15:31;24.20;99.90
35962;DHT22;22044;48.298;10.008;2022-08-21T11:18:12;24.20;99.90
35962;DHT22;22044;48.298;10.008;2022-08-21T11:20:45;23.50;99.90
35962;DHT22;22044;48.298;10.008;2022-08-21T11:23:21;23.70;99.90
35962;DHT22;22044;48.298;10.008;2022-08-21T11:25:53;23.40;99.90
35962;DHT22;22044;48.298;10.008;2022-08-21T11:28:26;23.20;99.90
35962;DHT22;22044;48.298;10.008;2022-08-21T11:31:02;23.30;99.90
35962;DHT22;22044;48.298;10.008;2022-08-21T11:33:45;23.70;99.90
35962;DHT22;22044;48.298;10.008;2022-08-21T11:36:20;23.90;99.90
35962;DHT22;22044;48.298;10.008;2022-08-21T11:38:55;23.70;99.90
35962;DHT22;22044;48.298;10.008;2022-08-21T11:41:28;23.50;99.90
35962;DHT22;22044;48.298;10.008;2022-08-21T11:44:02;23.50;99.90
35962;DHT22;22044;48.298;10.008;2022-08-21T11:46:47;23.10;99.90
35962;DHT22;22044;48.298;10.008;2022-08-21T11:49:24;23.10;99.90
35962;DHT22;22044;48.298;10.008;2022-08-21T11:51:59;23.30;99.90
35962;DHT22;22044;48.298;10.008;2022-08-21T11:54:36;23.10;99.90
35962;DHT22;22044;48.298;10.008;2022-08-21T11:57:08;23.00;99.90
35962;DHT22;22044;48.298;10.008;2022-08-21T11:59:43;23.10;99.90
35962;DHT22;22044;48.298;10.008;2022-08-21T12:02:14;23.50;99.90
35962;DHT22;22044;48.298;10.008;2022-08-21T12:04:47;23.70;99.90
35962;DHT22;22044;48.298;10.008;2022-08-21T12:07:27;23.80;99.90
35962;DHT22;22044;48.298;10.008;2022-08-21T12:09:57;24.10;99.90
35962;DHT22;22044;48.298;10.008;2022-08-21T12:12:26;24.00;99.90
35962;DHT22;22044;48.298;10.008;2022-08-21T12:17:55;24.20;99.90
35962;DHT22;22044;48.298;10.008;2022-08-21T12:20:37;24.20;99.90
35962;DHT22;22044;48.298;10.008;2022-08-21T12:23:16;24.20;99.90
35962;DHT22;22044;48.298;10.008;2022-08-21T12:25:47;24.40;99.90
35962;DHT22;22044;48.298;10.008;2022-08-21T12:28:21;24.60;99.90
35962;DHT22;22044;48.298;10.008;2022-08-21T12:30:49;24.70;99.90
35962;DHT22;22044;48.298;10.008;2022-08-21T12:33:23;24.80;99.90
35962;DHT22;22044;48.298;10.008;2022-08-21T12:35:53;24.80;99.90
35962;DHT22;22044;48.298;10.008;2022-08-21T12:38:29;24.60;99.90
35962;DHT22;22044;48.298;10.008;2022-08-21T12:41:02;24.50;99.90
35962;DHT22;22044;48.298;10.008;2022-08-21T12:43:39;24.40;99.90
35962;DHT22;22044;48.298;10.008;2022-08-21T12:46:15;24.50;99.90
35962;DHT22;22044;48.298;10.008;2022-08-21T12:48:49;24.70;99.90
35962;DHT22;22044;48.298;10.008;2022-08-21T12:51:23;24.80;99.90
35962;DHT22;22044;48.298;10.008;2022-08-21T12:53:52;25.00;99.90
35962;DHT22;22044;48.298;10.008;2022-08-21T12:56:24;25.10;99.90
35962;DHT22;22044;48.298;10.008;2022-08-21T12:58:54;25.10;99.90
35962;DHT22;22044;48.298;10.008;2022-08-21T13:01:25;24.90;99.90
35962;DHT22;22044;48.298;10.008;2022-08-21T13:03:55;25.00;99.90
35962;DHT22;22044;48.298;10.008;2022-08-21T13:06:25;24.80;99.90
35962;DHT22;22044;48.298;10.008;2022-08-21T13:08:57;24.80;99.90
35962;DHT22;22044;48.298;10.008;2022-08-21T13:11:27;24.70;99.90
35962;DHT22;22044;48.298;10.008;2022-08-21T13:13:54;24.90;99.90
35962;DHT22;22044;48.298;10.008;2022-08-21T13:16:24;25.20;99.90
35962;DHT22;22044;48.298;10.008;2022-08-21T13:18:56;25.40;99.90
35962;DHT22;22044;48.298;10.008;2022-08-21T13:21:28;25.60;99.90
35962;DHT22;22044;48.298;10.008;2022-08-21T13:24:13;25.70;99.90
35962;DHT22;22044;48.298;10.008;2022-08-21T13:26:43;25.40;99.90
35962;DHT22;22044;48.298;10.008;2022-08-21T13:29:12;24.60;99.90
35962;DHT22;22044;48.298;10.008;2022-08-21T13:31:49;24.40;99.90
35962;DHT22;22044;48.298;10.008;2022-08-21T13:34:20;24.20;99.90
35962;DHT22;22044;48.298;10.008;2022-08-21T13:36:48;24.30;99.90
35962;DHT22;22044;48.298;10.008;2022-08-21T13:39:19;24.50;99.90
35962;DHT22;22044;48.298;10.008;2022-08-21T13:41:50;24.30;99.90
35962;DHT22;22044;48.298;10.008;2022-08-21T13:44:20;24.30;99.90
35962;DHT22;22044;48.298;10.008;2022-08-21T13:46:52;24.50;99.90
35962;DHT22;22044;48.298;10.008;2022-08-21T13:49:23;24.70;99.90
35962;DHT22;22044;48.298;10.008;2022-08-21T13:51:58;24.80;99.90
35962;DHT22;22044;48.298;10.008;2022-08-21T13:54:34;24.70;99.90
35962;DHT22;22044;48.298;10.008;2022-08-21T13:57:03;24.90;99.90
35962;DHT22;22044;48.298;10.008;2022-08-21T13:59:33;25.20;99.90
35962;DHT22;22044;48.298;10.008;2022-08-21T14:02:08;25.40;99.90
35962;DHT22;22044;48.298;10.008;2022-08-21T14:04:39;25.30;99.90
35962;DHT22;22044;48.298;10.008;2022-08-21T14:07:15;25.10;99.90
35962;DHT22;22044;48.298;10.008;2022-08-21T14:09:44;24.70;99.90
35962;DHT22;22044;48.298;10.008;2022-08-21T14:12:15;25.00;99.90
35962;DHT22;22044;48.298;10.008;2022-08-21T14:14:43;25.10;99.90
35962;DHT22;22044;48.298;10.008;2022-08-21T14:17:14;24.90;99.90
35962;DHT22;22044;48.298;10.008;2022-08-21T14:19:52;24.80;99.90
35962;DHT22;22044;48.298;10.008;2022-08-21T14:22:30;24.60;99.90
35962;DHT22;22044;48.298;10.008;2022-08-21T14:25:05;24.70;99.90
35962;DHT22;22044;48.298;10.008;2022-08-21T14:27:36;24.60;99.90
35962;DHT22;22044;48.298;10.008;2022-08-21T14:30:11;24.90;99.90
35962;DHT22;22044;48.298;10.008;2022-08-21T14:32:40;24.80;99.90
35962;DHT22;22044;48.298;10.008;2022-08-21T14:35:08;24.50;99.90
35962;DHT22;22044;48.298;10.008;2022-08-21T14:37:35;24.90;99.90
35962;DHT22;22044;48.298;10.008;2022-08-21T14:40:04;25.30;99.90
35962;DHT22;22044;48.298;10.008;2022-08-21T14:42:31;25.30;99.90
35962;DHT22;22044;48.298;10.008;2022-08-21T14:45:13;25.10;99.90
35962;DHT22;22044;48.298;10.008;2022-08-21T14:47:40;25.50;99.90
35962;DHT22;22044;48.298;10.008;2022-08-21T14:50:09;25.60;99.90
35962;DHT22;22044;48.298;10.008;2022-08-21T14:52:37;25.60;99.90
35962;DHT22;22044;48.298;10.008;2022-08-21T14:55:06;25.10;99.90
35962;DHT22;22044;48.298;10.008;2022-08-21T14:57:33;25.20;99.90
35962;DHT22;22044;48.298;10.008;2022-08-21T15:00:03;25.20;99.90
35962;DHT22;22044;48.298;10.008;2022-08-21T15:02:30;25.30;99.90
35962;DHT22;22044;48.298;10.008;2022-08-21T15:04:58;25.30;99.60
35962;DHT22;22044;48.298;10.008;2022-08-21T15:07:25;25.00;99.90
35962;DHT22;22044;48.298;10.008;2022-08-21T15:09:52;24.80;99.90
35962;DHT22;22044;48.298;10.008;2022-08-21T15:12:19;25.30;99.90
35962;DHT22;22044;48.298;10.008;2022-08-21T15:14:46;25.70;99.90
35962;DHT22;22044;48.298;10.008;2022-08-21T15:17:15;26.00;99.90
35962;DHT22;22044;48.298;10.008;2022-08-21T15:19:42;26.10;99.90
35962;DHT22;22044;48.298;10.008;2022-08-21T15:22:09;26.40;99.90
35962;DHT22;22044;48.298;10.008;2022-08-21T15:24:37;26.50;99.90
35962;DHT22;22044;48.298;10.008;2022-08-21T15:27:06;26.60;99.90
35962;DHT22;22044;48.298;10.008;2022-08-21T15:29:34;26.50;99.90
35962;DHT22;22044;48.298;10.008;2022-08-21T15:32:03;26.50;99.90
35962;DHT22;22044;48.298;10.008;2022-08-21T15:34:42;26.70;99.90
35962;DHT22;22044;48.298;10.008;2022-08-21T15:37:10;26.70;99.90